createdAt,value
2022-09-28T00:01:31.317Z,8.86
2022-09-28T00:04:01.269Z,9.07
2022-09-28T00:06:31.308Z,8.52
2022-09-28T00:11:31.345Z,8.77
2022-09-28T00:16:31.428Z,9.87
2022-09-28T00:19:01.413Z,11.21
2022-09-28T00:21:31.429Z,10.58
2022-09-28T00:24:01.454Z,11
2022-09-28T00:26:31.488Z,8.02
2022-09-28T00:29:01.508Z,10.07
2022-09-28T00:31:31.670Z,9.19
2022-09-28T00:34:01.554Z,9
2022-09-28T00:36:31.590Z,9.17
2022-09-28T00:39:01.614Z,8.11
2022-09-28T00:41:31.630Z,9.23
2022-09-28T00:44:01.650Z,10.12
2022-09-28T00:49:01.692Z,10.68
2022-09-28T00:56:31.764Z,10.2
2022-09-28T00:59:01.808Z,10.11
2022-09-28T01:01:31.818Z,9.33
2022-09-28T01:04:01.827Z,9.72
2022-09-28T01:14:01.936Z,11.38
2022-09-28T01:16:31.988Z,10.5
2022-09-28T01:19:01.991Z,10.15
2022-09-28T01:21:31.992Z,10.54
2022-09-28T01:24:09.048Z,9.81
2022-09-28T01:26:32.055Z,9.62
2022-09-28T01:29:02.091Z,11.57
2022-09-28T01:31:32.174Z,10.26
2022-09-28T01:34:02.123Z,9.59
2022-09-28T01:39:02.167Z,10.32
2022-09-28T01:41:32.190Z,11.61
2022-09-28T01:44:02.242Z,10.82
2022-09-28T01:46:32.241Z,8.83
2022-09-28T01:51:32.279Z,6.71
2022-09-28T01:54:02.300Z,9.12
2022-09-28T01:56:32.329Z,8.67
2022-09-28T01:59:02.348Z,8.36
2022-09-28T02:04:02.395Z,9.02
2022-09-28T02:06:32.412Z,8.4
2022-09-28T02:09:02.438Z,7.8
2022-09-28T02:14:02.497Z,6.63
2022-09-28T02:16:32.587Z,9.74
2022-09-28T02:19:09.601Z,7.68
2022-09-28T02:21:32.569Z,8.07
2022-09-28T02:24:02.576Z,8.3
2022-09-28T02:26:32.616Z,7.62
2022-09-28T02:31:32.741Z,7.88
2022-09-28T02:34:02.701Z,9.93
2022-09-28T02:36:32.713Z,9.2
2022-09-28T02:44:02.766Z,7.11
2022-09-28T02:46:32.792Z,6.93
2022-09-28T02:51:32.859Z,6.22
2022-09-28T02:56:32.888Z,5.95
2022-09-28T03:01:32.946Z,5.93
2022-09-28T03:04:02.963Z,5.7
2022-09-28T03:06:32.996Z,5.47
2022-09-28T03:09:03.007Z,4.61
2022-09-28T03:14:03.078Z,5.53
2022-09-28T03:16:33.450Z,5.06
2022-09-28T03:19:03.093Z,4.49
2022-09-28T03:21:33.127Z,4.27
2022-09-28T03:24:10.209Z,4.55
2022-09-28T03:26:33.168Z,5.38
2022-09-28T03:29:03.207Z,4.81
2022-09-28T03:31:33.254Z,5.95
2022-09-28T03:34:03.287Z,6.08
2022-09-28T03:36:40.301Z,5.93
2022-09-28T03:41:33.325Z,5.59
2022-09-28T03:46:33.365Z,5.71
2022-09-28T03:49:03.400Z,6.23
2022-09-28T03:51:33.420Z,5.91
2022-09-28T03:54:03.440Z,7.51
2022-09-28T03:56:33.445Z,6.36
2022-09-28T03:59:03.487Z,7.87
2022-09-28T04:01:33.569Z,7.5
2022-09-28T04:04:03.526Z,10.81
2022-09-28T04:06:33.538Z,7.79
2022-09-28T04:09:03.571Z,6.76
2022-09-28T04:11:47.564Z,6.09
2022-09-28T04:14:03.616Z,6.7
2022-09-28T04:16:33.680Z,6.24
2022-09-28T04:19:03.683Z,6.29
2022-09-28T04:21:33.681Z,7.92
2022-09-28T04:24:03.710Z,7.45
2022-09-28T04:26:33.742Z,7.41
2022-09-28T04:31:33.879Z,5.95
2022-09-28T04:34:03.843Z,6.44
2022-09-28T04:36:33.848Z,6.62
2022-09-28T04:39:03.862Z,6.36
2022-09-28T04:41:33.883Z,6.05
2022-09-28T04:44:03.960Z,5.93
2022-09-28T04:51:34.019Z,6.94
2022-09-28T04:54:04.006Z,6.47
2022-09-28T04:56:34.042Z,6.6
2022-09-28T05:01:34.205Z,5.48
2022-09-28T05:04:04.093Z,5.13
2022-09-28T05:06:34.127Z,5.21
2022-09-28T05:09:04.152Z,5.76
2022-09-28T05:11:41.189Z,6.6
2022-09-28T05:14:04.188Z,7.06
2022-09-28T05:16:34.295Z,7.27
2022-09-28T05:19:04.233Z,8.25
2022-09-28T05:21:34.286Z,8.41
2022-09-28T05:24:04.314Z,8.8
2022-09-28T05:26:34.305Z,7.98
2022-09-28T05:29:04.342Z,7.73
2022-09-28T05:31:34.412Z,6.3
2022-09-28T05:34:04.391Z,6.4
2022-09-28T05:36:34.399Z,6.52
2022-09-28T05:41:34.444Z,8.12
2022-09-28T05:44:04.480Z,7.01
2022-09-28T05:49:04.513Z,7.13
2022-09-28T05:51:34.554Z,6.33
2022-09-28T05:54:14.846Z,6.96
2022-09-28T05:56:34.609Z,7.62
2022-09-28T05:59:11.649Z,9.11
2022-09-28T06:01:34.736Z,8.48
2022-09-28T06:04:04.700Z,16.9
2022-09-28T06:06:34.689Z,12.14
2022-09-28T06:09:11.734Z,9.6
2022-09-28T06:11:34.733Z,8.75
2022-09-28T06:16:34.839Z,9.4
2022-09-28T06:21:34.824Z,8.7
2022-09-28T06:24:04.863Z,7.04
2022-09-28T06:26:35.524Z,7.62
2022-09-28T06:31:34.915Z,6.6
2022-09-28T06:34:04.949Z,6.12
2022-09-28T06:36:34.971Z,6.03
2022-09-28T06:39:04.984Z,5.66
2022-09-28T06:44:05.039Z,6.08
2022-09-28T06:49:05.082Z,15.13
2022-09-28T06:51:35.124Z,14.73
2022-09-28T06:54:05.148Z,9.87
2022-09-28T06:56:35.192Z,7.22
2022-09-28T07:01:35.286Z,4.87
2022-09-28T07:04:05.248Z,7.01
2022-09-28T07:06:35.248Z,5.24
2022-09-28T07:09:18.885Z,5.13
2022-09-28T07:14:05.313Z,5.29
2022-09-28T07:19:05.370Z,4.47
2022-09-28T07:21:35.393Z,5.1
2022-09-28T07:34:05.508Z,5.91
2022-09-28T07:36:35.529Z,5.33
2022-09-28T07:41:35.587Z,6.89
2022-09-28T07:44:05.599Z,6.34
2022-09-28T07:46:35.616Z,6.6
2022-09-28T07:51:35.668Z,4.5
2022-09-28T07:54:05.717Z,3.72
2022-09-28T07:56:35.727Z,3.75
2022-09-28T07:59:05.747Z,3.47
2022-09-28T08:01:35.843Z,5.65
2022-09-28T08:04:12.825Z,4.18
2022-09-28T08:06:35.811Z,3.73
2022-09-28T08:09:05.854Z,4.13
2022-09-28T08:11:42.882Z,3.87
2022-09-28T08:14:05.885Z,3.67
2022-09-28T08:19:05.928Z,3.34
2022-09-28T08:21:35.960Z,2.59
2022-09-28T08:26:36.001Z,6.17
2022-09-28T08:29:06.033Z,4.43
2022-09-28T08:31:36.068Z,4.42
2022-09-28T08:39:06.122Z,4.58
2022-09-28T08:41:36.142Z,3.57
2022-09-28T08:46:36.242Z,2.98
2022-09-28T08:49:24.172Z,4.71
2022-09-28T08:51:36.251Z,4.21
2022-09-28T08:54:09.482Z,4.03
2022-09-28T08:56:36.285Z,4.41
2022-09-28T08:59:06.312Z,3.53
2022-09-28T09:01:36.424Z,2.64
2022-09-28T09:04:06.363Z,2.5
2022-09-28T09:06:36.369Z,3.23
2022-09-28T09:09:06.419Z,3.31
2022-09-28T09:11:36.428Z,4.42
2022-09-28T09:16:36.576Z,2.94
2022-09-28T09:19:06.502Z,3.1
2022-09-28T09:21:36.530Z,3.29
2022-09-28T09:26:36.560Z,1.9
2022-09-28T09:29:06.592Z,1.86
2022-09-28T09:31:36.629Z,2.19
2022-09-28T09:34:06.628Z,1.82
2022-09-28T09:36:36.650Z,1.99
2022-09-28T09:39:06.717Z,4.79
2022-09-28T09:44:06.779Z,4.29
2022-09-28T09:46:36.755Z,3.25
2022-09-28T09:49:06.771Z,2.24
2022-09-28T09:51:36.815Z,2.76
2022-09-28T09:54:06.828Z,1.8
2022-09-28T09:56:36.846Z,2.03
2022-09-28T09:59:06.857Z,1.66
2022-09-28T10:01:36.954Z,1.42
2022-09-28T10:04:06.927Z,1.45
2022-09-28T10:06:36.949Z,1.23
2022-09-28T10:09:06.956Z,1.17
2022-09-28T10:11:36.983Z,3.15
2022-09-28T10:14:07.003Z,1.84
2022-09-28T10:16:37.099Z,2.03
2022-09-28T10:19:07.048Z,1.44
2022-09-28T10:21:37.100Z,1.13
2022-09-28T10:24:07.127Z,0.74
2022-09-28T10:26:37.129Z,0.59
2022-09-28T10:31:37.168Z,0.6
2022-09-28T10:34:07.208Z,0.61
2022-09-28T10:36:37.223Z,0.47
2022-09-28T10:41:37.253Z,0.5
2022-09-28T10:44:07.287Z,0.53
2022-09-28T10:46:37.297Z,0.67
2022-09-28T10:49:07.340Z,0.76
2022-09-28T10:54:07.380Z,0.61
2022-09-28T10:56:37.416Z,0.57
2022-09-28T11:01:37.607Z,0.34
2022-09-28T11:04:07.478Z,0.5
2022-09-28T11:06:37.491Z,0.43
2022-09-28T11:09:07.507Z,0.41
2022-09-28T11:11:37.552Z,0.4
2022-09-28T11:14:07.559Z,0.56
2022-09-28T11:16:37.640Z,0.45
2022-09-28T11:21:37.627Z,0.61
2022-09-28T11:24:07.656Z,0.81
2022-09-28T11:26:37.681Z,0.49
2022-09-28T11:29:07.696Z,0.5
2022-09-28T11:31:37.714Z,0.51
2022-09-28T11:34:07.760Z,0.48
2022-09-28T11:39:07.794Z,1.85
2022-09-28T11:41:37.820Z,1.02
2022-09-28T11:44:07.872Z,0.71
2022-09-28T11:46:37.859Z,0.58
2022-09-28T11:49:07.940Z,0.67
2022-09-28T11:51:37.896Z,0.96
2022-09-28T11:56:37.965Z,0.5
2022-09-28T11:59:07.983Z,0.64
2022-09-28T12:01:38.009Z,0.5
2022-09-28T12:04:08.017Z,0.47
2022-09-28T12:06:38.043Z,0.79
2022-09-28T12:09:08.076Z,0.56
2022-09-28T12:11:38.109Z,0.48
2022-09-28T12:14:08.143Z,0.44
2022-09-28T12:17:03.971Z,0.3
2022-09-28T12:21:38.201Z,0.38
2022-09-28T12:24:08.218Z,0.35
2022-09-28T12:26:38.227Z,0.8
2022-09-28T12:29:08.291Z,0.73
2022-09-28T12:31:38.282Z,0.76
2022-09-28T12:36:38.322Z,0.84
2022-09-28T12:39:30.972Z,0.89
2022-09-28T12:41:38.386Z,0.54
2022-09-28T12:44:08.492Z,0.6
2022-09-28T12:46:38.498Z,0.56
2022-09-28T12:51:38.459Z,0.6
2022-09-28T12:56:38.504Z,0.74
2022-09-28T12:59:08.526Z,0.69
2022-09-28T13:01:38.611Z,0.55
2022-09-28T13:04:12.785Z,0.52
2022-09-28T13:06:38.612Z,0.38
2022-09-28T13:14:08.682Z,0.98
2022-09-28T13:16:38.699Z,0.87
2022-09-28T13:19:08.725Z,0.6
2022-09-28T13:21:38.751Z,0.44
2022-09-28T13:24:27.924Z,0.44
2022-09-28T13:26:38.795Z,0.36
2022-09-28T13:29:08.823Z,0.33
2022-09-28T13:31:40.210Z,0.33
2022-09-28T13:34:08.857Z,0.52
2022-09-28T13:36:38.883Z,0.6
2022-09-28T13:39:08.931Z,0.55
2022-09-28T13:41:38.932Z,0.44
2022-09-28T13:44:08.963Z,0.42
2022-09-28T13:46:38.993Z,0.49
2022-09-28T13:49:09.000Z,0.42
2022-09-28T13:54:09.059Z,0.45
2022-09-28T13:56:39.070Z,0.36
2022-09-28T13:59:09.111Z,0.51
2022-09-28T14:01:39.140Z,0.53
2022-09-28T14:04:09.153Z,0.42
2022-09-28T14:06:41.806Z,0.38
2022-09-28T14:09:09.210Z,0.51
2022-09-28T14:11:39.220Z,0.4
2022-09-28T14:14:09.242Z,0.56
2022-09-28T14:19:09.291Z,0.71
2022-09-28T14:24:09.334Z,0.77
2022-09-28T14:31:39.408Z,1.06
2022-09-28T14:34:09.465Z,0.69
2022-09-28T14:39:09.459Z,0.63
2022-09-28T14:46:39.578Z,0.62
2022-09-28T14:51:39.582Z,0.85
2022-09-28T14:54:09.617Z,0.7
2022-09-28T14:59:09.666Z,0.69
2022-09-28T15:01:39.679Z,3.09
2022-09-28T15:04:09.745Z,1.74
2022-09-28T15:06:39.742Z,1.39
2022-09-28T15:09:09.762Z,0.87
2022-09-28T15:16:39.817Z,0.84
2022-09-28T15:19:09.844Z,1.34
2022-09-28T15:24:09.904Z,0.78
2022-09-28T15:26:39.960Z,0.65
2022-09-28T15:31:39.997Z,0.71
2022-09-28T15:36:40.009Z,1.18
2022-09-28T15:39:10.050Z,2.49
2022-09-28T15:41:40.069Z,2.12
2022-09-28T15:44:10.092Z,1.6
2022-09-28T15:46:40.188Z,1.16
2022-09-28T15:49:10.145Z,1.02
2022-09-28T15:51:40.161Z,1.4
2022-09-28T15:54:10.190Z,0.91
2022-09-28T15:56:40.219Z,1.21
2022-09-28T15:59:10.245Z,1.01
2022-09-28T16:01:40.312Z,1.76
2022-09-28T16:04:10.280Z,4.19
2022-09-28T16:06:40.301Z,3.23
2022-09-28T16:09:10.312Z,2.19
2022-09-28T16:11:40.353Z,1.57
2022-09-28T16:14:10.361Z,3.29
2022-09-28T16:16:45.713Z,2.88
2022-09-28T16:19:10.435Z,2.8
2022-09-28T16:21:40.474Z,5.73
2022-09-28T16:24:10.460Z,3.54
2022-09-28T16:26:40.474Z,3.16
2022-09-28T16:29:10.514Z,3.25
2022-09-28T16:31:40.540Z,2.34
2022-09-28T16:34:11.709Z,1.94
2022-09-28T16:36:40.583Z,1.4
2022-09-28T16:39:10.614Z,1.51
2022-09-28T16:41:40.660Z,1.86
2022-09-28T16:44:10.648Z,1.46
2022-09-28T16:46:40.790Z,1.19
2022-09-28T16:49:10.711Z,1.29
2022-09-28T16:51:40.737Z,2.31
2022-09-28T16:54:10.760Z,1.61
2022-09-28T16:56:40.760Z,1.5
2022-09-28T16:59:13.629Z,2.97
2022-09-28T17:01:40.945Z,2.09
2022-09-28T17:04:10.837Z,2.53
2022-09-28T17:06:40.859Z,2.51
2022-09-28T17:11:40.914Z,1.93
2022-09-28T17:14:10.939Z,1.96
2022-09-28T17:19:10.982Z,1.28
2022-09-28T17:21:41.022Z,1.38
2022-09-28T17:26:41.065Z,1.41
2022-09-28T17:29:11.082Z,1.76
2022-09-28T17:34:11.267Z,2.41
2022-09-28T17:36:41.143Z,2.39
2022-09-28T17:39:11.185Z,2.29
2022-09-28T17:41:41.190Z,2.17
2022-09-28T17:44:11.211Z,4.35
2022-09-28T17:46:41.303Z,3.28
2022-09-28T17:49:11.269Z,3.94
2022-09-28T17:51:41.284Z,4.07
2022-09-28T17:56:41.347Z,3.38
2022-09-28T18:01:41.495Z,4.65
2022-09-28T18:04:19.149Z,5.89
2022-09-28T18:09:11.456Z,4.22
2022-09-28T18:11:41.480Z,3.92
2022-09-28T18:14:11.559Z,4.01
2022-09-28T18:16:41.540Z,5.78
2022-09-28T18:19:11.571Z,5.09
2022-09-28T18:24:11.626Z,4.38
2022-09-28T18:26:41.616Z,4.79
2022-09-28T18:34:11.742Z,5.14
2022-09-28T18:39:11.808Z,5.09
2022-09-28T18:44:11.792Z,8.14
2022-09-28T18:46:41.862Z,5.44
2022-09-28T18:49:11.863Z,4.81
2022-09-28T18:51:41.869Z,4.09
2022-09-28T18:54:11.876Z,4.08
2022-09-28T18:56:41.924Z,3.78
2022-09-28T18:59:12.435Z,2.97
2022-09-28T19:01:42.195Z,3.07
2022-09-28T19:04:11.979Z,2.69
2022-09-28T19:06:42.009Z,2.74
2022-09-28T19:09:12.061Z,4.53
2022-09-28T19:11:42.040Z,4.79
2022-09-28T19:14:12.065Z,3.87
2022-09-28T19:16:42.108Z,4.39
2022-09-28T19:21:42.168Z,3.4
2022-09-28T19:24:12.169Z,3.24
2022-09-28T19:26:42.193Z,2.87
2022-09-28T19:31:42.231Z,3.22
2022-09-28T19:34:14.157Z,3.36
2022-09-28T19:36:42.270Z,4.38
2022-09-28T19:39:12.309Z,4.89
2022-09-28T19:41:43.502Z,4.15
2022-09-28T19:44:12.361Z,4.39
2022-09-28T19:46:42.551Z,6
2022-09-28T19:49:12.405Z,4.75
2022-09-28T19:52:01.717Z,3.74
2022-09-28T19:54:12.440Z,3.79
2022-09-28T19:56:42.464Z,4.54
2022-09-28T20:01:42.566Z,7.29
2022-09-28T20:04:12.613Z,5.28
2022-09-28T20:06:42.569Z,9.26
2022-09-28T20:09:12.634Z,6.61
2022-09-28T20:11:42.617Z,4.88
2022-09-28T20:14:12.655Z,3.85
2022-09-28T20:19:12.674Z,3.41
2022-09-28T20:21:42.708Z,3.66
2022-09-28T20:24:12.732Z,2.92
2022-09-28T20:26:42.757Z,4.2
2022-09-28T20:36:42.861Z,5.13
2022-09-28T20:39:12.942Z,4.6
2022-09-28T20:41:42.932Z,4.04
2022-09-28T20:49:12.980Z,4.9
2022-09-28T20:51:42.998Z,6.31
2022-09-28T20:54:13.004Z,5.07
2022-09-28T21:01:43.174Z,3.94
2022-09-28T21:04:13.214Z,4.82
2022-09-28T21:09:13.167Z,3.74
2022-09-28T21:14:13.272Z,4.45
2022-09-28T21:16:43.246Z,4.79
2022-09-28T21:19:13.269Z,4.77
2022-09-28T21:21:43.282Z,5.31
2022-09-28T21:24:13.304Z,7.08
2022-09-28T21:26:43.326Z,5.45
2022-09-28T21:34:13.502Z,6.35
2022-09-28T21:39:13.429Z,4.52
2022-09-28T21:51:43.557Z,4.45
2022-09-28T21:56:43.591Z,3.56
2022-09-28T22:04:13.663Z,4.04
2022-09-28T22:09:13.696Z,4.6
2022-09-28T22:11:43.724Z,4.26
2022-09-28T22:14:13.748Z,3.99
2022-09-28T22:16:43.907Z,5.84
2022-09-28T22:19:13.794Z,4.47
2022-09-28T22:21:43.829Z,5.04
2022-09-28T22:24:13.847Z,4.21
2022-09-28T22:31:43.962Z,5.52
2022-09-28T22:34:13.939Z,4.37
2022-09-28T22:36:43.951Z,6.3
2022-09-28T22:39:13.994Z,5.04
2022-09-28T22:44:14.064Z,5.07
2022-09-28T22:49:14.086Z,4.97
2022-09-28T22:54:14.179Z,3.28
2022-09-28T22:56:44.131Z,5
2022-09-28T23:01:44.277Z,4.32
2022-09-28T23:04:14.218Z,3.89
2022-09-28T23:06:44.254Z,4.77
2022-09-28T23:09:21.290Z,4.11
2022-09-28T23:11:44.289Z,3.41
2022-09-28T23:14:21.342Z,3.97
2022-09-28T23:16:44.344Z,3.99
2022-09-28T23:19:14.440Z,3.54
2022-09-28T23:21:44.376Z,3.84
2022-09-28T23:24:21.419Z,4.04
2022-09-28T23:26:44.419Z,4.13
2022-09-28T23:29:14.532Z,4.05
2022-09-28T23:31:44.541Z,3.93
2022-09-28T23:34:14.501Z,4.39
2022-09-28T23:36:44.532Z,4.51
2022-09-28T23:41:44.568Z,3.41
2022-09-28T23:44:14.622Z,3.43
2022-09-28T23:46:44.667Z,4.69
2022-09-28T23:54:14.686Z,4.17
